createdAt,value
2019-03-29T00:00:01.180Z,11.109314
2019-03-29T00:00:14.787Z,11.109314
2019-03-29T00:00:27.384Z,11.109314
2019-03-29T00:00:41.974Z,11.109314
2019-03-29T00:00:54.613Z,11.139526
2019-03-29T00:01:07.212Z,11.139526
2019-03-29T00:01:19.806Z,11.139526
2019-03-29T00:01:32.394Z,11.139526
2019-03-29T00:01:44.989Z,11.139526
2019-03-29T00:01:58.599Z,11.139526
2019-03-29T00:02:11.214Z,11.149597
2019-03-29T00:02:24.795Z,11.169739
2019-03-29T00:02:37.421Z,11.149597
2019-03-29T00:02:51.015Z,11.149597
2019-03-29T00:03:04.624Z,11.149597
2019-03-29T00:03:18.187Z,11.149597
2019-03-29T00:03:30.780Z,11.169739
2019-03-29T00:03:43.392Z,11.149597
2019-03-29T00:03:56.013Z,11.149597
2019-03-29T00:04:08.662Z,11.169739
2019-03-29T00:04:21.263Z,11.149597
2019-03-29T00:04:35.863Z,11.169739
2019-03-29T00:04:49.500Z,11.169739
2019-03-29T00:05:03.803Z,11.169739
2019-03-29T00:05:16.403Z,11.169739
2019-03-29T00:05:30.001Z,11.17981
2019-03-29T00:05:44.252Z,11.18988
2019-03-29T00:05:57.198Z,11.169739
2019-03-29T00:06:10.752Z,11.17981
2019-03-29T00:06:23.416Z,11.17981
2019-03-29T00:06:36.385Z,11.17981
2019-03-29T00:06:49.615Z,11.169739
2019-03-29T00:07:02.204Z,11.17981
2019-03-29T00:07:14.817Z,11.17981
2019-03-29T00:07:39.227Z,11.17981
2019-03-29T00:07:49.907Z,11.18988
2019-03-29T00:08:02.534Z,11.18988
2019-03-29T00:08:17.099Z,11.18988
2019-03-29T00:08:30.762Z,11.18988
2019-03-29T00:08:43.362Z,11.18988
2019-03-29T00:08:55.983Z,11.17981
2019-03-29T00:09:09.613Z,11.17981
2019-03-29T00:09:22.220Z,11.18988
2019-03-29T00:09:34.817Z,11.18988
2019-03-29T00:09:47.395Z,11.17981
2019-03-29T00:10:00.008Z,11.17981
2019-03-29T00:10:12.591Z,11.18988
2019-03-29T00:10:25.168Z,11.169739
2019-03-29T00:10:37.773Z,11.17981
2019-03-29T00:10:51.348Z,11.17981
2019-03-29T00:11:04.023Z,11.17981
2019-03-29T00:11:17.525Z,11.17981
2019-03-29T00:11:30.099Z,11.17981
2019-03-29T00:11:42.710Z,11.17981
2019-03-29T00:11:55.283Z,11.169739
2019-03-29T00:12:08.514Z,11.149597
2019-03-29T00:12:21.114Z,11.149597
2019-03-29T00:12:33.710Z,11.149597
2019-03-29T00:12:46.312Z,11.149597
2019-03-29T00:12:58.896Z,11.139526
2019-03-29T00:13:14.410Z,11.109314
2019-03-29T00:13:26.112Z,11.109314
2019-03-29T00:13:38.698Z,11.109314
2019-03-29T00:13:51.325Z,11.109314
2019-03-29T00:14:03.938Z,11.139526
2019-03-29T00:14:16.521Z,11.109314
2019-03-29T00:14:31.088Z,11.109314
2019-03-29T00:14:44.258Z,11.109314
2019-03-29T00:14:56.873Z,11.099243
2019-03-29T00:15:09.454Z,11.139526
2019-03-29T00:15:22.061Z,11.099243
2019-03-29T00:15:34.647Z,11.099243
2019-03-29T00:15:47.276Z,11.099243
2019-03-29T00:16:00.051Z,11.089172
2019-03-29T00:16:12.470Z,11.089172
2019-03-29T00:16:25.321Z,11.089172
2019-03-29T00:16:37.667Z,11.089172
2019-03-29T00:16:50.322Z,11.089172
2019-03-29T00:17:02.902Z,11.089172
2019-03-29T00:17:15.508Z,11.089172
2019-03-29T00:17:29.102Z,11.089172
2019-03-29T00:17:41.713Z,11.069031
2019-03-29T00:17:55.330Z,11.069031
2019-03-29T00:18:09.919Z,11.069031
2019-03-29T00:18:22.490Z,11.089172
2019-03-29T00:18:35.930Z,11.069031
2019-03-29T00:18:49.664Z,11.069031
2019-03-29T00:19:02.313Z,11.069031
2019-03-29T00:19:15.925Z,11.05896
2019-03-29T00:19:29.531Z,11.05896
2019-03-29T00:19:43.937Z,11.038818
2019-03-29T00:19:57.544Z,11.038818
2019-03-29T00:20:12.138Z,11.05896
2019-03-29T00:20:25.748Z,11.05896
2019-03-29T00:20:39.348Z,11.038818
2019-03-29T00:20:52.938Z,11.038818
2019-03-29T00:21:05.541Z,11.038818
2019-03-29T00:21:18.141Z,11.038818
2019-03-29T00:21:30.769Z,11.038818
2019-03-29T00:21:44.363Z,11.038818
2019-03-29T00:21:56.955Z,11.038818
2019-03-29T00:22:10.588Z,11.028748
2019-03-29T00:22:24.139Z,11.028748
2019-03-29T00:22:38.736Z,11.018677
2019-03-29T00:22:51.415Z,11.018677
2019-03-29T00:23:05.974Z,11.018677
2019-03-29T00:23:18.594Z,11.018677
2019-03-29T00:23:32.218Z,11.018677
2019-03-29T00:23:44.840Z,11.018677
2019-03-29T00:24:06.819Z,10.998535
2019-03-29T00:24:16.925Z,10.988464
2019-03-29T00:24:29.502Z,10.988464
2019-03-29T00:24:42.109Z,10.968323
2019-03-29T00:24:55.401Z,10.988464
2019-03-29T00:25:07.984Z,10.988464
2019-03-29T00:25:20.672Z,10.988464
2019-03-29T00:25:34.245Z,10.968323
2019-03-29T00:25:46.883Z,10.968323
2019-03-29T00:25:59.471Z,10.968323
2019-03-29T00:26:13.048Z,10.968323
2019-03-29T00:26:25.890Z,10.968323
2019-03-29T00:26:38.249Z,10.968323
2019-03-29T00:26:50.838Z,10.958252
2019-03-29T00:27:04.426Z,10.968323
2019-03-29T00:27:17.025Z,10.958252
2019-03-29T00:27:29.613Z,10.958252
2019-03-29T00:27:42.229Z,10.958252
2019-03-29T00:27:54.843Z,10.968323
2019-03-29T00:28:07.436Z,10.958252
2019-03-29T00:28:21.637Z,10.958252
2019-03-29T00:28:34.245Z,10.958252
2019-03-29T00:28:47.846Z,10.968323
2019-03-29T00:29:01.132Z,10.958252
2019-03-29T00:29:13.724Z,10.93811
2019-03-29T00:29:28.360Z,10.93811
2019-03-29T00:29:40.923Z,10.93811
2019-03-29T00:29:53.483Z,10.93811
2019-03-29T00:30:08.063Z,10.93811
2019-03-29T00:30:21.387Z,10.958252
2019-03-29T00:30:34.252Z,10.93811
2019-03-29T00:30:47.984Z,10.93811
2019-03-29T00:31:01.430Z,10.93811
2019-03-29T00:31:14.184Z,10.917969
2019-03-29T00:31:27.636Z,10.917969
2019-03-29T00:31:40.299Z,10.917969
2019-03-29T00:31:53.839Z,10.917969
2019-03-29T00:32:06.430Z,10.907898
2019-03-29T00:32:19.003Z,10.907898
2019-03-29T00:32:33.580Z,10.907898
2019-03-29T00:32:46.176Z,10.887756
2019-03-29T00:32:58.831Z,10.887756
2019-03-29T00:33:11.446Z,10.887756
2019-03-29T00:33:24.224Z,10.877686
2019-03-29T00:33:36.753Z,10.887756
2019-03-29T00:33:50.066Z,10.877686
2019-03-29T00:34:02.988Z,10.877686
2019-03-29T00:34:17.597Z,10.857544
2019-03-29T00:34:30.194Z,10.847473
2019-03-29T00:34:42.798Z,10.857544
2019-03-29T00:34:55.384Z,10.857544
2019-03-29T00:35:08.280Z,10.877686
2019-03-29T00:35:20.589Z,10.857544
2019-03-29T00:35:33.387Z,10.847473
2019-03-29T00:35:47.630Z,10.847473
2019-03-29T00:36:00.252Z,10.817261
2019-03-29T00:36:13.837Z,10.847473
2019-03-29T00:36:26.448Z,10.847473
2019-03-29T00:36:39.023Z,10.837402
2019-03-29T00:36:52.000Z,10.817261
2019-03-29T00:37:04.260Z,10.817261
2019-03-29T00:37:18.051Z,10.817261
2019-03-29T00:37:30.414Z,10.817261
2019-03-29T00:37:53.163Z,10.80719
2019-03-29T00:38:03.554Z,10.80719
2019-03-29T00:38:17.147Z,10.80719
2019-03-29T00:38:30.723Z,10.80719
2019-03-29T00:38:43.304Z,10.787048
2019-03-29T00:38:56.905Z,10.80719
2019-03-29T00:39:09.556Z,10.80719
2019-03-29T00:39:24.086Z,10.787048
2019-03-29T00:39:36.699Z,10.80719
2019-03-29T00:39:49.373Z,10.80719
2019-03-29T00:40:02.948Z,10.80719
2019-03-29T00:40:15.533Z,10.787048
2019-03-29T00:40:29.129Z,10.787048
2019-03-29T00:40:42.747Z,10.787048
2019-03-29T00:40:55.392Z,10.776978
2019-03-29T00:41:08.979Z,10.776978
2019-03-29T00:41:21.592Z,10.776978
2019-03-29T00:41:35.163Z,10.787048
2019-03-29T00:41:47.765Z,10.787048
2019-03-29T00:42:00.365Z,10.787048
2019-03-29T00:42:12.960Z,10.787048
2019-03-29T00:42:26.148Z,10.776978
2019-03-29T00:42:38.747Z,10.776978
2019-03-29T00:42:51.333Z,10.776978
2019-03-29T00:43:03.936Z,10.776978
2019-03-29T00:43:16.574Z,10.776978
2019-03-29T00:43:30.173Z,10.756836
2019-03-29T00:43:43.792Z,10.756836
2019-03-29T00:43:56.423Z,10.756836
2019-03-29T00:44:09.993Z,10.756836
2019-03-29T00:44:22.607Z,10.776978
2019-03-29T00:44:35.235Z,10.776978
2019-03-29T00:44:47.872Z,10.756836
2019-03-29T00:45:02.161Z,10.756836
2019-03-29T00:45:15.777Z,10.736694
2019-03-29T00:45:30.011Z,10.736694
2019-03-29T00:45:42.650Z,10.736694
2019-03-29T00:45:55.247Z,10.736694
2019-03-29T00:46:07.864Z,10.736694
2019-03-29T00:46:20.449Z,10.736694
2019-03-29T00:46:33.034Z,10.726624
2019-03-29T00:46:46.654Z,10.736694
2019-03-29T00:46:59.247Z,10.706482
2019-03-29T00:47:12.863Z,10.706482
2019-03-29T00:47:26.508Z,10.726624
2019-03-29T00:47:40.027Z,10.706482
2019-03-29T00:47:52.649Z,10.696411
2019-03-29T00:48:06.244Z,10.696411
2019-03-29T00:48:19.874Z,10.67627
2019-03-29T00:48:35.444Z,10.696411
2019-03-29T00:48:47.413Z,10.67627
2019-03-29T00:49:00.744Z,10.696411
2019-03-29T00:49:13.355Z,10.666199
2019-03-29T00:49:26.656Z,10.67627
2019-03-29T00:49:39.299Z,10.67627
2019-03-29T00:49:51.904Z,10.666199
2019-03-29T00:50:04.497Z,10.666199
2019-03-29T00:50:18.888Z,10.656128
2019-03-29T00:50:31.583Z,10.656128
2019-03-29T00:50:45.205Z,10.666199
2019-03-29T00:50:58.934Z,10.656128
2019-03-29T00:51:12.413Z,10.656128
2019-03-29T00:51:25.191Z,10.656128
2019-03-29T00:51:37.687Z,10.635986
2019-03-29T00:51:51.027Z,10.656128
2019-03-29T00:52:04.971Z,10.625916
2019-03-29T00:52:18.604Z,10.625916
2019-03-29T00:52:32.216Z,10.605774
2019-03-29T00:52:45.827Z,10.625916
2019-03-29T00:52:58.424Z,10.605774
2019-03-29T00:53:12.055Z,10.605774
2019-03-29T00:53:25.668Z,10.605774
2019-03-29T00:53:39.271Z,10.595703
2019-03-29T00:53:51.879Z,10.605774
2019-03-29T00:54:05.459Z,10.595703
2019-03-29T00:54:18.082Z,10.585632
2019-03-29T00:54:31.670Z,10.585632
2019-03-29T00:54:44.251Z,10.585632
2019-03-29T00:54:56.883Z,10.595703
2019-03-29T00:55:09.486Z,10.585632
2019-03-29T00:55:22.096Z,10.585632
2019-03-29T00:55:34.674Z,10.55542
2019-03-29T00:55:47.263Z,10.545349
2019-03-29T00:55:59.868Z,10.545349
2019-03-29T00:56:13.089Z,10.545349
2019-03-29T00:56:25.092Z,10.545349
2019-03-29T00:56:38.413Z,10.55542
2019-03-29T00:56:51.285Z,10.545349
2019-03-29T00:57:04.830Z,10.515137
2019-03-29T00:57:17.484Z,10.545349
2019-03-29T00:57:31.169Z,10.525208
2019-03-29T00:57:43.531Z,10.525208
2019-03-29T00:57:56.199Z,10.515137
2019-03-29T00:58:09.688Z,10.515137
2019-03-29T00:58:22.935Z,10.515137
2019-03-29T00:58:34.837Z,10.515137
2019-03-29T00:58:48.865Z,10.505066
2019-03-29T00:59:02.029Z,10.515137
2019-03-29T00:59:14.955Z,10.515137
2019-03-29T00:59:27.895Z,10.505066
2019-03-29T00:59:40.831Z,10.515137
2019-03-29T00:59:53.092Z,10.484924
2019-03-29T01:00:06.277Z,10.484924
2019-03-29T01:00:19.288Z,10.505066
2019-03-29T01:00:34.863Z,10.484924
2019-03-29T01:00:47.468Z,10.505066
2019-03-29T01:01:00.288Z,10.484924
2019-03-29T01:01:12.644Z,10.484924
2019-03-29T01:01:25.926Z,10.484924
2019-03-29T01:01:37.842Z,10.474854
2019-03-29T01:01:50.429Z,10.484924
2019-03-29T01:02:03.997Z,10.454712
2019-03-29T01:02:16.601Z,10.484924
2019-03-29T01:02:30.782Z,10.474854
2019-03-29T01:02:44.178Z,10.474854
2019-03-29T01:02:56.961Z,10.454712
2019-03-29T01:03:10.839Z,10.454712
2019-03-29T01:03:23.166Z,10.454712
2019-03-29T01:03:37.360Z,10.454712
2019-03-29T01:03:49.842Z,10.454712
2019-03-29T01:04:03.043Z,10.454712
2019-03-29T01:04:15.040Z,10.454712
2019-03-29T01:04:28.375Z,10.444641
2019-03-29T01:04:41.240Z,10.444641
2019-03-29T01:04:54.281Z,10.454712
2019-03-29T01:05:07.501Z,10.444641
2019-03-29T01:05:20.969Z,10.444641
2019-03-29T01:05:33.414Z,10.444641
2019-03-29T01:05:46.298Z,10.4245
2019-03-29T01:05:58.613Z,10.4245
2019-03-29T01:06:11.225Z,10.4245
2019-03-29T01:06:23.789Z,10.444641
2019-03-29T01:06:36.383Z,10.4245
2019-03-29T01:06:49.984Z,10.414429
2019-03-29T01:07:02.602Z,10.4245
2019-03-29T01:07:16.174Z,10.414429
2019-03-29T01:07:28.760Z,10.414429
2019-03-29T01:07:42.347Z,10.404358
2019-03-29T01:08:06.938Z,10.404358
2019-03-29T01:08:16.423Z,10.384216
2019-03-29T01:08:29.040Z,10.404358
2019-03-29T01:08:42.644Z,10.384216
2019-03-29T01:08:55.253Z,10.364075
2019-03-29T01:09:07.888Z,10.364075
2019-03-29T01:09:20.478Z,10.364075
2019-03-29T01:09:34.055Z,10.343933
2019-03-29T01:09:46.625Z,10.364075
2019-03-29T01:10:00.440Z,10.333862
2019-03-29T01:10:12.812Z,10.333862
2019-03-29T01:10:27.404Z,10.333862
2019-03-29T01:10:39.986Z,10.30365
2019-03-29T01:10:53.461Z,10.323792
2019-03-29T01:11:06.072Z,10.30365
2019-03-29T01:11:18.637Z,10.30365
2019-03-29T01:11:31.228Z,10.293579
2019-03-29T01:11:43.797Z,10.293579
2019-03-29T01:11:56.410Z,10.273438
2019-03-29T01:12:08.983Z,10.273438
2019-03-29T01:12:21.585Z,10.263367
2019-03-29T01:12:34.173Z,10.273438
2019-03-29T01:12:46.772Z,10.253296
2019-03-29T01:12:59.368Z,10.253296
2019-03-29T01:13:12.960Z,10.253296
2019-03-29T01:13:25.569Z,10.253296
2019-03-29T01:13:38.171Z,10.233154
2019-03-29T01:13:50.964Z,10.233154
2019-03-29T01:14:03.413Z,10.233154
2019-03-29T01:14:16.263Z,10.223083
2019-03-29T01:14:28.600Z,10.223083
2019-03-29T01:14:41.189Z,10.202942
2019-03-29T01:14:54.759Z,10.202942
2019-03-29T01:15:07.405Z,10.1828
2019-03-29T01:15:20.980Z,10.1828
2019-03-29T01:15:33.575Z,10.172729
2019-03-29T01:15:47.162Z,10.172729
2019-03-29T01:15:59.763Z,10.172729
2019-03-29T01:16:12.964Z,10.172729
2019-03-29T01:16:27.158Z,10.152588
2019-03-29T01:16:40.098Z,10.152588
2019-03-29T01:16:53.860Z,10.172729
2019-03-29T01:17:06.256Z,10.152588
2019-03-29T01:17:19.986Z,10.152588
2019-03-29T01:17:32.410Z,10.152588
2019-03-29T01:17:45.704Z,10.152588
2019-03-29T01:17:57.609Z,10.152588
2019-03-29T01:18:11.224Z,10.142517
2019-03-29T01:18:24.388Z,10.152588
2019-03-29T01:18:37.872Z,10.142517
2019-03-29T01:18:50.570Z,10.122375
2019-03-29T01:19:04.242Z,10.122375
2019-03-29T01:19:17.027Z,10.122375
2019-03-29T01:19:30.632Z,10.112305
2019-03-29T01:19:43.212Z,10.112305
2019-03-29T01:19:56.082Z,10.112305
2019-03-29T01:20:08.404Z,10.122375
2019-03-29T01:20:21.195Z,10.092163
2019-03-29T01:20:33.562Z,10.092163
2019-03-29T01:20:46.135Z,10.082092
2019-03-29T01:20:58.741Z,10.092163
2019-03-29T01:21:11.343Z,10.082092
2019-03-29T01:21:23.940Z,10.082092
2019-03-29T01:21:36.519Z,10.072021
2019-03-29T01:21:50.085Z,10.082092
2019-03-29T01:22:02.659Z,10.082092
2019-03-29T01:22:15.251Z,10.072021
2019-03-29T01:22:27.907Z,10.072021
2019-03-29T01:22:41.405Z,10.072021
2019-03-29T01:22:54.533Z,10.05188
2019-03-29T01:23:08.908Z,10.072021
2019-03-29T01:23:22.390Z,10.05188
2019-03-29T01:23:35.994Z,10.072021
2019-03-29T01:23:49.257Z,10.072021
2019-03-29T01:24:02.177Z,10.082092
2019-03-29T01:24:15.952Z,10.072021
2019-03-29T01:24:29.026Z,10.072021
2019-03-29T01:24:42.120Z,10.072021
2019-03-29T01:24:54.229Z,10.05188
2019-03-29T01:25:07.969Z,10.05188
2019-03-29T01:25:20.435Z,10.05188
2019-03-29T01:25:35.051Z,10.05188
2019-03-29T01:25:47.464Z,10.05188
2019-03-29T01:26:00.932Z,10.05188
2019-03-29T01:26:14.399Z,10.041809
2019-03-29T01:26:27.151Z,10.05188
2019-03-29T01:26:39.596Z,10.05188
2019-03-29T01:26:52.379Z,10.05188
2019-03-29T01:27:04.786Z,10.05188
2019-03-29T01:27:19.041Z,10.021667
2019-03-29T01:27:31.865Z,10.021667
2019-03-29T01:27:44.459Z,10.021667
2019-03-29T01:27:57.039Z,10.041809
2019-03-29T01:28:11.865Z,10.021667
2019-03-29T01:28:24.210Z,10.041809
2019-03-29T01:28:36.788Z,10.021667
2019-03-29T01:28:49.391Z,10.021667
2019-03-29T01:29:01.959Z,10.021667
2019-03-29T01:29:16.453Z,9.991455
2019-03-29T01:29:29.070Z,9.971313
2019-03-29T01:29:42.708Z,9.961243
2019-03-29T01:29:55.312Z,9.961243
2019-03-29T01:30:07.890Z,9.961243
2019-03-29T01:30:20.475Z,9.93103
2019-03-29T01:30:34.076Z,9.93103
2019-03-29T01:30:46.692Z,9.93103
2019-03-29T01:31:00.295Z,9.900818
2019-03-29T01:31:12.876Z,9.900818
2019-03-29T01:31:26.462Z,9.890747
2019-03-29T01:31:39.055Z,9.890747
2019-03-29T01:31:51.661Z,9.870605
2019-03-29T01:32:04.257Z,9.860535
2019-03-29T01:32:16.837Z,9.860535
2019-03-29T01:32:29.451Z,9.860535
2019-03-29T01:32:43.019Z,9.840393
2019-03-29T01:32:55.629Z,9.830322
2019-03-29T01:33:10.250Z,9.830322
2019-03-29T01:33:22.860Z,9.810181
2019-03-29T01:33:36.451Z,9.810181
2019-03-29T01:33:49.045Z,9.790039
2019-03-29T01:34:01.639Z,9.779968
2019-03-29T01:34:14.249Z,9.790039
2019-03-29T01:34:27.840Z,9.779968
2019-03-29T01:34:40.464Z,9.779968
2019-03-29T01:34:54.035Z,9.759827
2019-03-29T01:35:06.636Z,9.759827
2019-03-29T01:35:20.195Z,9.749756
2019-03-29T01:35:32.791Z,9.759827
2019-03-29T01:35:46.392Z,9.739685
2019-03-29T01:35:59.004Z,9.739685
2019-03-29T01:36:12.627Z,9.719543
2019-03-29T01:36:25.228Z,9.739685
2019-03-29T01:36:37.820Z,9.739685
2019-03-29T01:36:50.418Z,9.719543
2019-03-29T01:37:04.008Z,9.709473
2019-03-29T01:37:16.624Z,9.689331
2019-03-29T01:37:30.211Z,9.67926
2019-03-29T01:37:42.791Z,9.689331
2019-03-29T01:37:56.353Z,9.689331
2019-03-29T01:38:21.017Z,9.689331
2019-03-29T01:38:29.452Z,9.67926
2019-03-29T01:38:43.016Z,9.659119
2019-03-29T01:38:56.617Z,9.649048
2019-03-29T01:39:09.199Z,9.659119
2019-03-29T01:39:22.783Z,9.659119
2019-03-29T01:39:35.375Z,9.659119
2019-03-29T01:39:48.525Z,9.638977
2019-03-29T01:40:02.103Z,9.638977
2019-03-29T01:40:15.657Z,9.638977
2019-03-29T01:40:28.271Z,9.638977
2019-03-29T01:40:41.835Z,9.608765
2019-03-29T01:40:55.441Z,9.608765
2019-03-29T01:41:09.027Z,9.598694
2019-03-29T01:41:21.616Z,9.608765
2019-03-29T01:41:35.183Z,9.608765
2019-03-29T01:41:47.766Z,9.608765
2019-03-29T01:42:00.343Z,9.598694
2019-03-29T01:42:12.964Z,9.598694
2019-03-29T01:42:26.545Z,9.598694
2019-03-29T01:42:39.179Z,9.598694
2019-03-29T01:42:52.715Z,9.608765
2019-03-29T01:43:05.300Z,9.598694
2019-03-29T01:43:18.948Z,9.598694
2019-03-29T01:43:31.464Z,9.608765
2019-03-29T01:43:45.050Z,9.598694
2019-03-29T01:43:57.640Z,9.598694
2019-03-29T01:44:11.238Z,9.598694
2019-03-29T01:44:24.829Z,9.608765
2019-03-29T01:44:37.441Z,9.608765
2019-03-29T01:44:50.063Z,9.608765
2019-03-29T01:45:02.666Z,9.608765
2019-03-29T01:45:15.282Z,9.608765
2019-03-29T01:45:28.859Z,9.638977
2019-03-29T01:45:41.438Z,9.608765
2019-03-29T01:45:56.002Z,9.638977
2019-03-29T01:46:08.592Z,9.638977
2019-03-29T01:46:22.158Z,9.649048
2019-03-29T01:46:34.738Z,9.659119
2019-03-29T01:46:48.318Z,9.649048
2019-03-29T01:47:00.892Z,9.649048
2019-03-29T01:47:13.466Z,9.638977
2019-03-29T01:47:26.064Z,9.649048
2019-03-29T01:47:38.659Z,9.649048
2019-03-29T01:47:51.252Z,9.649048
2019-03-29T01:48:04.824Z,9.659119
2019-03-29T01:48:17.475Z,9.649048
2019-03-29T01:48:31.022Z,9.649048
2019-03-29T01:48:43.643Z,9.649048
2019-03-29T01:48:56.230Z,9.649048
2019-03-29T01:49:08.827Z,9.638977
2019-03-29T01:49:21.416Z,9.638977
2019-03-29T01:49:34.078Z,9.638977
2019-03-29T01:49:47.620Z,9.638977
2019-03-29T01:50:00.930Z,9.608765
2019-03-29T01:50:15.266Z,9.608765
2019-03-29T01:50:27.852Z,9.608765
2019-03-29T01:50:41.435Z,9.608765
2019-03-29T01:50:54.029Z,9.638977
2019-03-29T01:51:08.634Z,9.608765
2019-03-29T01:51:21.217Z,9.608765
2019-03-29T01:51:34.795Z,9.608765
2019-03-29T01:51:47.372Z,9.598694
2019-03-29T01:52:00.964Z,9.608765
2019-03-29T01:52:14.314Z,9.608765
2019-03-29T01:52:30.150Z,9.598694
2019-03-29T01:52:44.278Z,9.598694
2019-03-29T01:52:56.866Z,9.608765
2019-03-29T01:53:09.451Z,9.598694
2019-03-29T01:53:23.035Z,9.608765
2019-03-29T01:53:35.625Z,9.608765
2019-03-29T01:53:49.186Z,9.598694
2019-03-29T01:54:01.779Z,9.608765
2019-03-29T01:54:15.397Z,9.608765
2019-03-29T01:54:27.969Z,9.608765
2019-03-29T01:54:40.603Z,9.638977
2019-03-29T01:54:53.178Z,9.608765
2019-03-29T01:55:05.803Z,9.608765
2019-03-29T01:55:18.431Z,9.608765
2019-03-29T01:55:32.008Z,9.608765
2019-03-29T01:55:44.600Z,9.598694
2019-03-29T01:55:58.064Z,9.578552
2019-03-29T01:56:10.657Z,9.578552
2019-03-29T01:56:24.228Z,9.578552
2019-03-29T01:56:36.830Z,9.568481
2019-03-29T01:56:49.429Z,9.578552
2019-03-29T01:57:02.006Z,9.568481
2019-03-29T01:57:14.580Z,9.568481
2019-03-29T01:57:27.185Z,9.568481
2019-03-29T01:57:40.797Z,9.568481
2019-03-29T01:57:53.416Z,9.558411
2019-03-29T01:58:07.007Z,9.558411
2019-03-29T01:58:19.627Z,9.558411
2019-03-29T01:58:32.774Z,9.558411
2019-03-29T01:58:45.383Z,9.558411
2019-03-29T01:58:58.981Z,9.558411
2019-03-29T01:59:11.548Z,9.558411
2019-03-29T01:59:25.137Z,9.538269
2019-03-29T01:59:38.731Z,9.558411
2019-03-29T01:59:53.013Z,9.538269
2019-03-29T02:00:06.170Z,9.538269
2019-03-29T02:00:19.799Z,9.528198
2019-03-29T02:00:33.403Z,9.528198
2019-03-29T02:00:46.971Z,9.528198
2019-03-29T02:00:59.585Z,9.538269
2019-03-29T02:01:13.786Z,9.538269
2019-03-29T02:01:26.402Z,9.528198
2019-03-29T02:01:39.962Z,9.538269
2019-03-29T02:01:52.540Z,9.528198
2019-03-29T02:02:06.115Z,9.538269
2019-03-29T02:02:19.272Z,9.528198
2019-03-29T02:02:32.856Z,9.538269
2019-03-29T02:02:46.207Z,9.528198
2019-03-29T02:02:59.078Z,9.528198
2019-03-29T02:03:13.430Z,9.508057
2019-03-29T02:03:26.537Z,9.528198
2019-03-29T02:03:39.266Z,9.528198
2019-03-29T02:03:51.719Z,9.508057
2019-03-29T02:04:05.894Z,9.508057
2019-03-29T02:04:18.851Z,9.528198
2019-03-29T02:04:31.432Z,9.528198
2019-03-29T02:04:45.015Z,9.508057
2019-03-29T02:04:58.582Z,9.528198
2019-03-29T02:05:12.143Z,9.508057
2019-03-29T02:05:25.728Z,9.497986
2019-03-29T02:05:38.368Z,9.508057
2019-03-29T02:05:50.947Z,9.508057
2019-03-29T02:06:05.543Z,9.497986
2019-03-29T02:06:18.171Z,9.508057
2019-03-29T02:06:30.730Z,9.497986
2019-03-29T02:06:43.322Z,9.497986
2019-03-29T02:06:57.881Z,9.497986
2019-03-29T02:07:10.550Z,9.497986
2019-03-29T02:07:23.053Z,9.508057
2019-03-29T02:07:35.651Z,9.528198
2019-03-29T02:07:51.026Z,9.528198
2019-03-29T02:08:04.239Z,9.508057
2019-03-29T02:08:17.219Z,9.508057
2019-03-29T02:08:37.797Z,9.508057
2019-03-29T02:08:50.208Z,9.508057
2019-03-29T02:09:04.347Z,9.508057
2019-03-29T02:09:17.285Z,9.508057
2019-03-29T02:09:30.248Z,9.508057
2019-03-29T02:09:43.458Z,9.528198
2019-03-29T02:09:56.821Z,9.508057
2019-03-29T02:10:08.630Z,9.508057
2019-03-29T02:10:21.226Z,9.508057
2019-03-29T02:10:33.842Z,9.497986
2019-03-29T02:10:46.433Z,9.497986
2019-03-29T02:11:00.034Z,9.497986
2019-03-29T02:11:12.691Z,9.497986
2019-03-29T02:11:26.286Z,9.477844
2019-03-29T02:11:38.875Z,9.477844
2019-03-29T02:11:52.460Z,9.467773
2019-03-29T02:12:05.051Z,9.477844
2019-03-29T02:12:17.642Z,9.467773
2019-03-29T02:12:30.238Z,9.457703
2019-03-29T02:12:43.825Z,9.457703
2019-03-29T02:12:56.423Z,9.42749
2019-03-29T02:13:10.002Z,9.417419
2019-03-29T02:13:22.579Z,9.397278
2019-03-29T02:13:36.193Z,9.397278
2019-03-29T02:13:48.782Z,9.387207
2019-03-29T02:14:01.405Z,9.377136
2019-03-29T02:14:13.991Z,9.356995
2019-03-29T02:14:26.585Z,9.346924
2019-03-29T02:14:39.161Z,9.316711
2019-03-29T02:14:52.747Z,9.306641
2019-03-29T02:15:05.341Z,9.306641
2019-03-29T02:15:18.936Z,9.286499
2019-03-29T02:15:31.519Z,9.276428
2019-03-29T02:15:44.138Z,9.256287
2019-03-29T02:15:57.719Z,9.226074
2019-03-29T02:16:10.333Z,9.226074
2019-03-29T02:16:22.903Z,9.226074
2019-03-29T02:16:36.484Z,9.205933
2019-03-29T02:16:49.084Z,9.195862
2019-03-29T02:17:02.642Z,9.195862
2019-03-29T02:17:15.233Z,9.17572
2019-03-29T02:17:28.805Z,9.165649
2019-03-29T02:17:42.387Z,9.165649
2019-03-29T02:17:55.984Z,9.165649
2019-03-29T02:18:09.464Z,9.145508
2019-03-29T02:18:23.118Z,9.145508
2019-03-29T02:18:36.681Z,9.145508
2019-03-29T02:18:50.262Z,9.135437
2019-03-29T02:19:02.867Z,9.125366
2019-03-29T02:19:15.445Z,9.135437
2019-03-29T02:19:28.029Z,9.135437
2019-03-29T02:19:41.286Z,9.135437
2019-03-29T02:19:53.909Z,9.125366
2019-03-29T02:20:06.497Z,9.125366
2019-03-29T02:20:19.095Z,9.135437
2019-03-29T02:20:32.686Z,9.125366
2019-03-29T02:20:45.317Z,9.125366
2019-03-29T02:20:58.903Z,9.125366
2019-03-29T02:21:11.501Z,9.125366
2019-03-29T02:21:25.095Z,9.125366
2019-03-29T02:21:37.691Z,9.125366
2019-03-29T02:21:50.282Z,9.135437
2019-03-29T02:22:02.893Z,9.135437
2019-03-29T02:22:16.457Z,9.135437
2019-03-29T02:22:30.038Z,9.135437
2019-03-29T02:22:43.636Z,9.145508
2019-03-29T02:22:56.225Z,9.145508
2019-03-29T02:23:09.807Z,9.145508
2019-03-29T02:23:23.390Z,9.145508
2019-03-29T02:23:35.990Z,9.165649
2019-03-29T02:23:48.565Z,9.165649
2019-03-29T02:24:01.166Z,9.165649
2019-03-29T02:24:13.769Z,9.165649
2019-03-29T02:24:27.371Z,9.145508
2019-03-29T02:24:39.955Z,9.165649
2019-03-29T02:24:53.536Z,9.165649
2019-03-29T02:25:07.123Z,9.17572
2019-03-29T02:25:20.712Z,9.17572
2019-03-29T02:25:33.309Z,9.165649
2019-03-29T02:25:45.906Z,9.165649
2019-03-29T02:25:58.508Z,9.195862
2019-03-29T02:26:12.116Z,9.17572
2019-03-29T02:26:24.707Z,9.195862
2019-03-29T02:26:38.042Z,9.165649
2019-03-29T02:26:50.626Z,9.17572
2019-03-29T02:27:04.207Z,9.165649
2019-03-29T02:27:16.783Z,9.165649
2019-03-29T02:27:30.364Z,9.165649
2019-03-29T02:27:43.966Z,9.165649
2019-03-29T02:27:58.403Z,9.17572
2019-03-29T02:28:11.976Z,9.165649
2019-03-29T02:28:25.562Z,9.17572
2019-03-29T02:28:38.153Z,9.17572
2019-03-29T02:28:52.706Z,9.165649
2019-03-29T02:29:05.295Z,9.165649
2019-03-29T02:29:18.895Z,9.165649
2019-03-29T02:29:31.482Z,9.145508
2019-03-29T02:29:44.081Z,9.17572
2019-03-29T02:29:56.695Z,9.165649
2019-03-29T02:30:10.279Z,9.165649
2019-03-29T02:30:22.821Z,9.165649
2019-03-29T02:30:36.416Z,9.165649
2019-03-29T02:30:49.003Z,9.165649
2019-03-29T02:31:04.418Z,9.145508
2019-03-29T02:31:17.036Z,9.125366
2019-03-29T02:31:33.601Z,9.125366
2019-03-29T02:31:48.803Z,9.135437
2019-03-29T02:32:02.398Z,9.105225
2019-03-29T02:32:14.976Z,9.125366